Little Sugar Creek (Missouri), Pineville (07188838)

StateMissouriCurrentPotential (855 cfs)
RiverLittle Sugar CreekFlood - The river is flooding. Obstacles can be treacherous or deadly. The river should be avoided at this stage for casual trips and definitely for the inexperienced. Trips should be attempted only with protective gear and equipment.Flood(none)
Updated2019-10-13 18:15 (1 hour ago)High - The river is high and potentially dangerous, especially for the young and / or inexperienced. Normal stream obstacles are sometimes difficult to navigate. Extended distances can be attempted, but canoe travel may not be advisable.High(none)
Discharge855 cfs (median: 97 cfs)Good - Conditions are ideal for a canoe or kayak. Boats typically will drag on fewer than one-quarter of riffles, if at all, and portages are unnecessary or rare. Normal float lengths can be attempted without a problem.Good(none)
Height5.08 feetLow - River is low but can still be floated. Some riffles are okay but most come with significant dragging and might need a portage. Float lengths should be reduced to accommodate low flow, dragging, and portages.Low(none)
TrendFalling (falling over 24 hours)Poor - River is too low to float comfortably. Most or all riffles will drag or must be portaged and some obstacles (such as slick shelf rock) cause undue problems. Avoid the river at this stage for casual paddling trips.Poor(none)
USGSExternal icon USGS Site for Pineville (07188838)LocationExternal icon Google Maps

Trending Data

Plot Image
ObservationHeightDischargeMaximum
Discharge
Minimum
Discharge
Mean
Discharge
P05P10P20P25P50
(Median)
P75P80P90P95
2019-10-13 18:15 5.08 855 1770 (2015) 20 (2006) 250 21 33 35 97 271 288 1130
2019-10-13 17:15 5.10 866 1770 (2015) 20 (2006) 250 21 33 35 97 271 288 1130
2019-10-13 16:15 5.14 889 1770 (2015) 20 (2006) 250 21 33 35 97 271 288 1130
2019-10-13 15:15 5.17 907 1770 (2015) 20 (2006) 250 21 33 35 97 271 288 1130
2019-10-13 14:15 5.19 918 1770 (2015) 20 (2006) 250 21 33 35 97 271 288 1130
2019-10-13 13:15 5.23 942 1770 (2015) 20 (2006) 250 21 33 35 97 271 288 1130
2019-10-13 12:15 5.27 966 1770 (2015) 20 (2006) 250 21 33 35 97 271 288 1130
2019-10-13 11:15 5.29 978 1770 (2015) 20 (2006) 250 21 33 35 97 271 288 1130
2019-10-13 10:15 5.33 1000 1770 (2015) 20 (2006) 250 21 33 35 97 271 288 1130
2019-10-13 09:15 5.36 1020 1770 (2015) 20 (2006) 250 21 33 35 97 271 288 1130
2019-10-13 08:15 5.40 1040 1770 (2015) 20 (2006) 250 21 33 35 97 271 288 1130
2019-10-13 07:15 5.44 1070 1770 (2015) 20 (2006) 250 21 33 35 97 271 288 1130
2019-10-13 06:15 5.47 1080 1770 (2015) 20 (2006) 250 21 33 35 97 271 288 1130
2019-10-13 05:15 5.52 1110 1770 (2015) 20 (2006) 250 21 33 35 97 271 288 1130
2019-10-13 04:15 5.56 1130 1770 (2015) 20 (2006) 250 21 33 35 97 271 288 1130
2019-10-13 03:15 5.60 1150 1770 (2015) 20 (2006) 250 21 33 35 97 271 288 1130
2019-10-13 02:15 5.65 1180 1770 (2015) 20 (2006) 250 21 33 35 97 271 288 1130
2019-10-13 01:15 5.70 1200 1770 (2015) 20 (2006) 250 21 33 35 97 271 288 1130
2019-10-13 00:15 5.74 1220 1770 (2015) 20 (2006) 250 21 33 35 97 271 288 1130
2019-10-12 23:15 5.79 1250 624 (2010) 21 (2006) 128 22 33 37 74 111 117 514
2019-10-12 22:15 5.84 1270 624 (2010) 21 (2006) 128 22 33 37 74 111 117 514
2019-10-12 21:15 5.91 1310 624 (2010) 21 (2006) 128 22 33 37 74 111 117 514
2019-10-12 20:15 5.98 1350 624 (2010) 21 (2006) 128 22 33 37 74 111 117 514
2019-10-12 19:15 6.03 1380 624 (2010) 21 (2006) 128 22 33 37 74 111 117 514
2019-10-12 18:15 6.11 1420 624 (2010) 21 (2006) 128 22 33 37 74 111 117 514
2019-10-12 17:15 6.18 1460 624 (2010) 21 (2006) 128 22 33 37 74 111 117 514
2019-10-12 16:15 6.27 1510 624 (2010) 21 (2006) 128 22 33 37 74 111 117 514
2019-10-12 15:15 6.33 1540 624 (2010) 21 (2006) 128 22 33 37 74 111 117 514
2019-10-12 14:15 6.43 1600 624 (2010) 21 (2006) 128 22 33 37 74 111 117 514
2019-10-12 13:15 6.52 1650 624 (2010) 21 (2006) 128 22 33 37 74 111 117 514
2019-10-12 12:15 6.60 1690 624 (2010) 21 (2006) 128 22 33 37 74 111 117 514
2019-10-12 11:15 6.71 1750 624 (2010) 21 (2006) 128 22 33 37 74 111 117 514
2019-10-12 10:15 6.81 1810 624 (2010) 21 (2006) 128 22 33 37 74 111 117 514
2019-10-12 09:15 6.92 1870 624 (2010) 21 (2006) 128 22 33 37 74 111 117 514
2019-10-12 08:15 7.05 1940 624 (2010) 21 (2006) 128 22 33 37 74 111 117 514
2019-10-12 07:15 7.20 2040 624 (2010) 21 (2006) 128 22 33 37 74 111 117 514
2019-10-12 06:15 7.35 2130 624 (2010) 21 (2006) 128 22 33 37 74 111 117 514
2019-10-12 05:15 7.51 2240 624 (2010) 21 (2006) 128 22 33 37 74 111 117 514
2019-10-12 04:15 7.65 2320 624 (2010) 21 (2006) 128 22 33 37 74 111 117 514
2019-10-12 03:15 7.85 2450 624 (2010) 21 (2006) 128 22 33 37 74 111 117 514
2019-10-12 02:15 8.04 2580 624 (2010) 21 (2006) 128 22 33 37 74 111 117 514
2019-10-12 01:15 8.27 2770 624 (2010) 21 (2006) 128 22 33 37 74 111 117 514
2019-10-12 00:15 8.52 2970 624 (2010) 21 (2006) 128 22 33 37 74 111 117 514
2019-10-11 23:15 8.80 3190 971 (2010) 21 (2006) 158 21 23 28 42 98 124 805
2019-10-11 22:15 9.12 3470 971 (2010) 21 (2006) 158 21 23 28 42 98 124 805
2019-10-11 21:15 9.42 3730 971 (2010) 21 (2006) 158 21 23 28 42 98 124 805
2019-10-11 20:15 9.88 4150 971 (2010) 21 (2006) 158 21 23 28 42 98 124 805
2019-10-11 19:15 10.47 4730 971 (2010) 21 (2006) 158 21 23 28 42 98 124 805
2019-10-11 18:15 11.23 5530 971 (2010) 21 (2006) 158 21 23 28 42 98 124 805
2019-10-11 17:15 12.13 6550 971 (2010) 21 (2006) 158 21 23 28 42 98 124 805
2019-10-11 16:15 12.95 7560 971 (2010) 21 (2006) 158 21 23 28 42 98 124 805
2019-10-11 15:15 13.65 8470 971 (2010) 21 (2006) 158 21 23 28 42 98 124 805
2019-10-11 14:15 14.24 9290 971 (2010) 21 (2006) 158 21 23 28 42 98 124 805
2019-10-11 13:15 14.73 9990 971 (2010) 21 (2006) 158 21 23 28 42 98 124 805
2019-10-11 12:15 15.08 10500 971 (2010) 21 (2006) 158 21 23 28 42 98 124 805
2019-10-11 11:15 15.36 10900 971 (2010) 21 (2006) 158 21 23 28 42 98 124 805
2019-10-11 10:15 15.71 11500 971 (2010) 21 (2006) 158 21 23 28 42 98 124 805
2019-10-11 09:15 16.04 12000 971 (2010) 21 (2006) 158 21 23 28 42 98 124 805
2019-10-11 08:15 16.29 12400 971 (2010) 21 (2006) 158 21 23 28 42 98 124 805
2019-10-11 07:15 16.15 12200 971 (2010) 21 (2006) 158 21 23 28 42 98 124 805
2019-10-11 06:15 15.55 11200 971 (2010) 21 (2006) 158 21 23 28 42 98 124 805
2019-10-11 05:15 14.62 9830 971 (2010) 21 (2006) 158 21 23 28 42 98 124 805
2019-10-11 04:15 13.55 8340 971 (2010) 21 (2006) 158 21 23 28 42 98 124 805
2019-10-11 03:15 12.25 6690 971 (2010) 21 (2006) 158 21 23 28 42 98 124 805
2019-10-11 02:15 9.46 3770 971 (2010) 21 (2006) 158 21 23 28 42 98 124 805
2019-10-11 01:15 7.11 1890 971 (2010) 21 (2006) 158 21 23 28 42 98 124 805
2019-10-11 00:15 5.98 1170 971 (2010) 21 (2006) 158 21 23 28 42 98 124 805
2019-10-10 23:15 5.51 901 2300 (2010) 21 (2006) 247 21 23 27 42 109 146 1410
2019-10-10 22:15 5.08 673 2300 (2010) 21 (2006) 247 21 23 27 42 109 146 1410
2019-10-10 21:15 4.64 481 2300 (2010) 21 (2006) 247 21 23 27 42 109 146 1410
2019-10-10 20:15 4.42 400 2300 (2010) 21 (2006) 247 21 23 27 42 109 146 1410
2019-10-10 19:15 4.38 387 2300 (2010) 21 (2006) 247 21 23 27 42 109 146 1410
2019-10-10 18:15 4.36 380 2300 (2010) 21 (2006) 247 21 23 27 42 109 146 1410
2019-10-10 17:15 4.35 377 2300 (2010) 21 (2006) 247 21 23 27 42 109 146 1410
2019-10-10 16:15 4.35 377 2300 (2010) 21 (2006) 247 21 23 27 42 109 146 1410
2019-10-10 15:15 4.37 383 2300 (2010) 21 (2006) 247 21 23 27 42 109 146 1410
2019-10-10 14:15 4.31 364 2300 (2010) 21 (2006) 247 21 23 27 42 109 146 1410
2019-10-10 13:15 4.28 354 2300 (2010) 21 (2006) 247 21 23 27 42 109 146 1410
2019-10-10 12:15 4.29 357 2300 (2010) 21 (2006) 247 21 23 27 42 109 146 1410
2019-10-10 11:15 4.30 360 2300 (2010) 21 (2006) 247 21 23 27 42 109 146 1410
2019-10-10 10:15 4.32 367 2300 (2010) 21 (2006) 247 21 23 27 42 109 146 1410
2019-10-10 09:15 4.33 370 2300 (2010) 21 (2006) 247 21 23 27 42 109 146 1410
2019-10-10 08:15 4.35 377 2300 (2010) 21 (2006) 247 21 23 27 42 109 146 1410
2019-10-10 07:15 4.36 380 2300 (2010) 21 (2006) 247 21 23 27 42 109 146 1410
2019-10-10 06:15 4.38 387 2300 (2010) 21 (2006) 247 21 23 27 42 109 146 1410
2019-10-10 05:15 4.39 390 2300 (2010) 21 (2006) 247 21 23 27 42 109 146 1410
2019-10-10 04:15 4.42 400 2300 (2010) 21 (2006) 247 21 23 27 42 109 146 1410
2019-10-10 03:15 4.43 404 2300 (2010) 21 (2006) 247 21 23 27 42 109 146 1410
2019-10-10 02:15 4.46 414 2300 (2010) 21 (2006) 247 21 23 27 42 109 146 1410
2019-10-10 01:15 4.48 422 2300 (2010) 21 (2006) 247 21 23 27 42 109 146 1410
2019-10-10 00:15 4.50 429 2300 (2010) 21 (2006) 247 21 23 27 42 109 146 1410
2019-10-09 23:15 4.52 436 6940 (2010) 21 (2006) 547 21 24 27 40 97 107 3560
2019-10-09 22:15 4.54 443 6940 (2010) 21 (2006) 547 21 24 27 40 97 107 3560
2019-10-09 21:15 4.57 455 6940 (2010) 21 (2006) 547 21 24 27 40 97 107 3560
2019-10-09 20:15 4.58 458 6940 (2010) 21 (2006) 547 21 24 27 40 97 107 3560
2019-10-09 19:15 4.61 470 6940 (2010) 21 (2006) 547 21 24 27 40 97 107 3560
2019-10-09 18:15 4.63 477 6940 (2010) 21 (2006) 547 21 24 27 40 97 107 3560
2019-10-09 17:15 4.65 485 6940 (2010) 21 (2006) 547 21 24 27 40 97 107 3560
2019-10-09 16:15 4.68 497 6940 (2010) 21 (2006) 547 21 24 27 40 97 107 3560
2019-10-09 15:15 4.70 505 6940 (2010) 21 (2006) 547 21 24 27 40 97 107 3560
2019-10-09 14:15 4.73 517 6940 (2010) 21 (2006) 547 21 24 27 40 97 107 3560
2019-10-09 13:15 4.76 529 6940 (2010) 21 (2006) 547 21 24 27 40 97 107 3560
2019-10-09 12:15 4.79 542 6940 (2010) 21 (2006) 547 21 24 27 40 97 107 3560
2019-10-09 11:15 4.82 555 6940 (2010) 21 (2006) 547 21 24 27 40 97 107 3560
2019-10-09 10:15 4.85 567 6940 (2010) 21 (2006) 547 21 24 27 40 97 107 3560
2019-10-09 09:15 4.88 581 6940 (2010) 21 (2006) 547 21 24 27 40 97 107 3560
2019-10-09 08:15 4.89 585 6940 (2010) 21 (2006) 547 21 24 27 40 97 107 3560
2019-10-09 07:15 4.92 598 6940 (2010) 21 (2006) 547 21 24 27 40 97 107 3560
2019-10-09 06:15 4.95 612 6940 (2010) 21 (2006) 547 21 24 27 40 97 107 3560
2019-10-09 05:15 4.97 621 6940 (2010) 21 (2006) 547 21 24 27 40 97 107 3560
2019-10-09 04:15 5.00 635 6940 (2010) 21 (2006) 547 21 24 27 40 97 107 3560
2019-10-09 03:15 5.04 653 6940 (2010) 21 (2006) 547 21 24 27 40 97 107 3560
2019-10-09 02:15 5.06 663 6940 (2010) 21 (2006) 547 21 24 27 40 97 107 3560
2019-10-09 01:15 5.08 673 6940 (2010) 21 (2006) 547 21 24 27 40 97 107 3560
2019-10-09 00:15 5.13 697 6940 (2010) 21 (2006) 547 21 24 27 40 97 107 3560
2019-10-08 23:15 5.15 707 181 (2008) 21 (2006) 64 21 24 25 41 106 122 156
2019-10-08 22:15 5.19 727 181 (2008) 21 (2006) 64 21 24 25 41 106 122 156
2019-10-08 21:15 5.23 747 181 (2008) 21 (2006) 64 21 24 25 41 106 122 156
2019-10-08 20:15 5.27 768 181 (2008) 21 (2006) 64 21 24 25 41 106 122 156
2019-10-08 19:15 5.30 784 181 (2008) 21 (2006) 64 21 24 25 41 106 122 156
2019-10-08 18:15 5.36 816 181 (2008) 21 (2006) 64 21 24 25 41 106 122 156
2019-10-08 17:15 5.40 838 181 (2008) 21 (2006) 64 21 24 25 41 106 122 156
2019-10-08 16:15 5.46 872 181 (2008) 21 (2006) 64 21 24 25 41 106 122 156
2019-10-08 15:15 5.51 901 181 (2008) 21 (2006) 64 21 24 25 41 106 122 156
2019-10-08 14:15 5.55 924 181 (2008) 21 (2006) 64 21 24 25 41 106 122 156
2019-10-08 13:15 5.61 960 181 (2008) 21 (2006) 64 21 24 25 41 106 122 156
2019-10-08 12:15 5.66 991 181 (2008) 21 (2006) 64 21 24 25 41 106 122 156
2019-10-08 11:15 5.72 1030 181 (2008) 21 (2006) 64 21 24 25 41 106 122 156
2019-10-08 10:15 5.78 1060 181 (2008) 21 (2006) 64 21 24 25 41 106 122 156
2019-10-08 09:15 5.84 1090 181 (2008) 21 (2006) 64 21 24 25 41 106 122 156
2019-10-08 08:15 5.92 1140 181 (2008) 21 (2006) 64 21 24 25 41 106 122 156
2019-10-08 07:15 6.00 1180 181 (2008) 21 (2006) 64 21 24 25 41 106 122 156
2019-10-08 06:15 6.05 1210 181 (2008) 21 (2006) 64 21 24 25 41 106 122 156
2019-10-08 05:15 6.12 1260 181 (2008) 21 (2006) 64 21 24 25 41 106 122 156
2019-10-08 04:15 6.22 1320 181 (2008) 21 (2006) 64 21 24 25 41 106 122 156
2019-10-08 03:15 6.31 1370 181 (2008) 21 (2006) 64 21 24 25 41 106 122 156
2019-10-08 02:15 6.40 1430 181 (2008) 21 (2006) 64 21 24 25 41 106 122 156
2019-10-08 01:15 6.52 1510 181 (2008) 21 (2006) 64 21 24 25 41 106 122 156
2019-10-08 00:15 6.62 1580 181 (2008) 21 (2006) 64 21 24 25 41 106 122 156
2019-10-07 23:15 6.73 1650 204 (2008) 21 (2006) 63 22 23 24 43 78 95 174
2019-10-07 22:15 6.84 1720 204 (2008) 21 (2006) 63 22 23 24 43 78 95 174
2019-10-07 21:15 6.98 1810 204 (2008) 21 (2006) 63 22 23 24 43 78 95 174
2019-10-07 20:15 7.11 1890 204 (2008) 21 (2006) 63 22 23 24 43 78 95 174
2019-10-07 19:15 7.28 2010 204 (2008) 21 (2006) 63 22 23 24 43 78 95 174
2019-10-07 18:15 7.44 2130 204 (2008) 21 (2006) 63 22 23 24 43 78 95 174
2019-10-07 17:15 7.61 2260 204 (2008) 21 (2006) 63 22 23 24 43 78 95 174
2019-10-07 16:15 7.83 2410 204 (2008) 21 (2006) 63 22 23 24 43 78 95 174
2019-10-07 15:15 8.07 2610 204 (2008) 21 (2006) 63 22 23 24 43 78 95 174
2019-10-07 14:15 8.15 2670 204 (2008) 21 (2006) 63 22 23 24 43 78 95 174
2019-10-07 13:15 8.51 2960 204 (2008) 21 (2006) 63 22 23 24 43 78 95 174
2019-10-07 12:15 8.80 3190 204 (2008) 21 (2006) 63 22 23 24 43 78 95 174
2019-10-07 11:15 9.11 3460 204 (2008) 21 (2006) 63 22 23 24 43 78 95 174
2019-10-07 10:15 9.43 3740 204 (2008) 21 (2006) 63 22 23 24 43 78 95 174
2019-10-07 09:15 9.88 4150 204 (2008) 21 (2006) 63 22 23 24 43 78 95 174
2019-10-07 08:15 10.45 4710 204 (2008) 21 (2006) 63 22 23 24 43 78 95 174
2019-10-07 07:15 11.19 5480 204 (2008) 21 (2006) 63 22 23 24 43 78 95 174
2019-10-07 06:15 12.11 6530 204 (2008) 21 (2006) 63 22 23 24 43 78 95 174
2019-10-07 05:15 13.07 7710 204 (2008) 21 (2006) 63 22 23 24 43 78 95 174
2019-10-07 04:15 13.99 8940 204 (2008) 21 (2006) 63 22 23 24 43 78 95 174
2019-10-07 03:15 14.80 10100 204 (2008) 21 (2006) 63 22 23 24 43 78 95 174
2019-10-07 02:15 15.53 11200 204 (2008) 21 (2006) 63 22 23 24 43 78 95 174
2019-10-07 01:15 16.25 12300 204 (2008) 21 (2006) 63 22 23 24 43 78 95 174
2019-10-07 00:15 16.82 13300 204 (2008) 21 (2006) 63 22 23 24 43 78 95 174
2019-10-06 23:15 17.34 14200 259 (2008) 22 (2005) 71 22 23 24 45 74 89 235
2019-10-06 22:15 17.75 14900 259 (2008) 22 (2005) 71 22 23 24 45 74 89 235
2019-10-06 21:15 17.90 15100 259 (2008) 22 (2005) 71 22 23 24 45 74 89 235
2019-10-06 20:15 17.66 14700 259 (2008) 22 (2005) 71 22 23 24 45 74 89 235
2019-10-06 19:15 17.34 14200 259 (2008) 22 (2005) 71 22 23 24 45 74 89 235
2019-10-06 18:15 16.97 13500 259 (2008) 22 (2005) 71 22 23 24 45 74 89 235
2019-10-06 17:15 16.19 12200 259 (2008) 22 (2005) 71 22 23 24 45 74 89 235
2019-10-06 16:15 13.93 8850 259 (2008) 22 (2005) 71 22 23 24 45 74 89 235
2019-10-06 15:15 10.68 4940 259 (2008) 22 (2005) 71 22 23 24 45 74 89 235
2019-10-06 14:15 8.77 3170 259 (2008) 22 (2005) 71 22 23 24 45 74 89 235
2019-10-06 13:15 7.10 1880 259 (2008) 22 (2005) 71 22 23 24 45 74 89 235
2019-10-06 12:15 5.17 717 259 (2008) 22 (2005) 71 22 23 24 45 74 89 235
2019-10-06 11:15 4.48 422 259 (2008) 22 (2005) 71 22 23 24 45 74 89 235
2019-10-06 10:15 3.91 248 259 (2008) 22 (2005) 71 22 23 24 45 74 89 235
2019-10-06 09:15 3.53 163 259 (2008) 22 (2005) 71 22 23 24 45 74 89 235
2019-10-06 08:15 3.34 129 259 (2008) 22 (2005) 71 22 23 24 45 74 89 235
2019-10-06 07:15 3.29 120 259 (2008) 22 (2005) 71 22 23 24 45 74 89 235
2019-10-06 06:15 3.24 113 259 (2008) 22 (2005) 71 22 23 24 45 74 89 235
2019-10-06 05:15 3.22 110 259 (2008) 22 (2005) 71 22 23 24 45 74 89 235
2019-10-06 04:15 3.21 108 259 (2008) 22 (2005) 71 22 23 24 45 74 89 235
2019-10-06 03:15 3.21 108 259 (2008) 22 (2005) 71 22 23 24 45 74 89 235
2019-10-06 02:15 3.15 99 259 (2008) 22 (2005) 71 22 23 24 45 74 89 235
2019-10-06 01:15 3.15 99 259 (2008) 22 (2005) 71 22 23 24 45 74 89 235
2019-10-06 00:15 3.15 99 259 (2008) 22 (2005) 71 22 23 24 45 74 89 235

A total of 187 rows are displayed for years 2005 through 2018.

Trips for Little Sugar Creek (Missouri), Pineville (07188838)

DateStartEndDistanceConditionDischargeHeightFishingDetails

A total of 0 rows are displayed.

Condition Descriptions

Fishing Conditions

Fish Species

Notes

Classic Trip List

The classic River Trips application is still available for use. It is updated with the new system using a data retrofit. It is no longer maintained. The original River Trips application is no longer updated (as of 1 Dec 2016) but can be checked for errors or for the condition of the data before it was converted to the new system.